Time;durP1;ratioP1;P1;durP2;ratioP2;P2;SDS_P1;SDS_P2;PMS_P1;PMS_P2;Temp;Humidity;BMP_temperature;BMP_pressure;BME280_temperature;BME280_humidity;BME280_pressure;Samples;Min_cycle;Max_cycle;Signal;HPM_P1;HPM_P2
2021/05/14 00:01:28;;;;;;;12.75;9.98;;;8.70;96.30;;;;;;5036270;28;20482;-72
2021/05/14 00:03:54;;;;;;;12.23;10.05;;;8.70;96.50;;;;;;5036196;28;20037;-72
2021/05/14 00:06:20;;;;;;;11.82;9.38;;;8.60;96.50;;;;;;5035947;28;20037;-72
2021/05/14 00:08:47;;;;;;;11.98;9.48;;;8.80;96.40;;;;;;5036613;28;20049;-72
2021/05/14 00:11:12;;;;;;;11.25;9.45;;;8.80;96.40;;;;;;5036648;28;20037;-72
2021/05/14 00:13:38;;;;;;;11.73;8.85;;;8.80;96.30;;;;;;5036250;28;20041;-72
2021/05/14 00:16:07;;;;;;;13.80;9.13;;;8.70;96.40;;;;;;5035402;28;20397;-72
2021/05/14 00:18:33;;;;;;;11.30;8.98;;;8.80;96.20;;;;;;5036182;28;20351;-72
2021/05/14 00:20:58;;;;;;;12.32;9.25;;;8.90;96.20;;;;;;5036250;28;20048;-72
2021/05/14 00:23:24;;;;;;;13.93;10.30;;;9.00;96.10;;;;;;5035960;28;20063;-72
2021/05/14 00:25:50;;;;;;;13.55;11.00;;;9.00;96.00;;;;;;5035614;28;20037;-72
2021/05/14 00:28:15;;;;;;;12.70;9.77;;;8.90;96.20;;;;;;5035456;28;20046;-72
2021/05/14 00:30:41;;;;;;;12.32;9.38;;;8.90;96.30;;;;;;5035930;28;20056;-72
2021/05/14 00:33:07;;;;;;;14.65;10.77;;;9.00;96.50;;;;;;5035644;28;20042;-72
2021/05/14 00:35:32;;;;;;;12.50;10.73;;;9.00;96.20;;;;;;5035171;28;20404;-72
2021/05/14 00:37:58;;;;;;;14.40;11.05;;;8.90;96.50;;;;;;5035900;28;20038;-72
2021/05/14 00:40:24;;;;;;;16.80;11.35;;;9.00;96.40;;;;;;5018301;28;20042;-72
2021/05/14 00:42:49;;;;;;;14.60;11.40;;;9.10;96.30;;;;;;5035422;28;20370;-72
2021/05/14 00:45:15;;;;;;;15.50;10.75;;;9.10;96.20;;;;;;5035192;28;20044;-72
2021/05/14 00:47:41;;;;;;;15.23;11.32;;;9.00;96.10;;;;;;5035142;28;20034;-72
2021/05/14 00:50:08;;;;;;;15.40;10.98;;;9.10;96.10;;;;;;5035051;28;20083;-72
2021/05/14 00:52:34;;;;;;;15.55;11.57;;;9.10;96.10;;;;;;5035421;28;20049;-72
2021/05/14 00:55:00;;;;;;;15.88;11.98;;;9.20;96.00;;;;;;5035124;28;20482;-72
2021/05/14 00:57:26;;;;;;;17.42;11.43;;;9.20;96.00;;;;;;5035121;28;20091;-72
2021/05/14 00:59:52;;;;;;;19.35;12.85;;;9.20;96.10;;;;;;5034701;28;20045;-72
2021/05/14 01:02:19;;;;;;;17.25;12.43;;;9.20;96.00;;;;;;5034990;28;20058;-72
2021/05/14 01:04:45;;;;;;;19.63;13.90;;;9.20;96.00;;;;;;5034740;28;20033;-72
2021/05/14 01:07:12;;;;;;;17.88;13.38;;;8.90;96.30;;;;;;5035078;28;20125;-72
2021/05/14 01:09:42;;;;;;;16.35;13.00;;;9.10;96.40;;;;;;5035052;28;20033;-72
2021/05/14 01:12:12;;;;;;;16.35;12.80;;;9.10;96.40;;;;;;5017630;28;20036;-72
2021/05/14 01:14:38;;;;;;;19.48;13.02;;;9.20;96.20;;;;;;5034436;28;20444;-72
2021/05/14 01:17:04;;;;;;;19.42;13.27;;;9.20;96.10;;;;;;5034703;28;20041;-72
2021/05/14 01:19:29;;;;;;;17.45;13.43;;;9.30;96.10;;;;;;5035268;28;20041;-72
2021/05/14 01:21:55;;;;;;;24.00;15.38;;;9.30;96.10;;;;;;5035210;28;20172;-72
2021/05/14 01:24:21;;;;;;;20.42;14.13;;;9.30;96.20;;;;;;5034753;28;20116;-72
2021/05/14 01:26:47;;;;;;;23.10;15.43;;;9.10;96.20;;;;;;5034568;28;20033;-72
2021/05/14 01:29:13;;;;;;;23.92;15.23;;;9.00;96.40;;;;;;5034724;28;20060;-72
2021/05/14 01:31:40;;;;;;;23.20;16.52;;;8.90;96.70;;;;;;5034831;28;20033;-72
2021/05/14 01:34:07;;;;;;;26.83;18.02;;;8.80;96.90;;;;;;5034294;28;20033;-72
2021/05/14 01:36:38;;;;;;;26.33;17.50;;;9.00;97.00;;;;;;5033904;28;20042;-72
2021/05/14 01:39:12;;;;;;;26.55;16.88;;;9.10;96.90;;;;;;5034297;28;20043;-72
2021/05/14 01:41:39;;;;;;;27.25;18.00;;;9.10;96.90;;;;;;5034781;28;20120;-72
2021/05/14 01:44:06;;;;;;;28.73;17.90;;;9.00;97.10;;;;;;5034533;28;20497;-72
2021/05/14 01:46:32;;;;;;;27.50;15.68;;;8.80;97.40;;;;;;5033851;28;20064;-72
2021/05/14 01:48:58;;;;;;;25.10;15.88;;;8.80;97.50;;;;;;5034589;28;20123;-72
2021/05/14 01:51:24;;;;;;;24.83;16.80;;;8.90;97.70;;;;;;5034710;28;20477;-72
2021/05/14 01:53:51;;;;;;;33.15;19.08;;;8.90;97.60;;;;;;5034120;28;20493;-72
2021/05/14 01:56:18;;;;;;;26.55;16.77;;;8.70;97.90;;;;;;5033662;28;20037;-72
2021/05/14 01:58:46;;;;;;;30.75;18.13;;;8.70;98.20;;;;;;5033768;28;20076;-72
2021/05/14 02:01:12;;;;;;;29.42;17.67;;;8.60;98.40;;;;;;5033954;28;20477;-72
2021/05/14 02:03:37;;;;;;;28.80;19.13;;;8.70;98.50;;;;;;5034125;28;20071;-72
2021/05/14 02:06:03;;;;;;;29.65;18.27;;;8.70;98.50;;;;;;5033439;28;20044;-72
2021/05/14 02:08:30;;;;;;;30.75;18.25;;;8.70;98.50;;;;;;5033770;28;20071;-72
2021/05/14 02:10:57;;;;;;;28.00;17.38;;;8.90;98.40;;;;;;5033531;28;20042;-72
2021/05/14 02:13:22;;;;;;;29.27;17.92;;;8.90;98.20;;;;;;5033586;28;20041;-72
2021/05/14 02:15:48;;;;;;;22.27;15.63;;;9.00;98.10;;;;;;5033249;28;20402;-73
2021/05/14 02:18:14;;;;;;;22.23;13.52;;;9.10;98.10;;;;;;5033406;28;20033;-72
2021/05/14 02:20:43;;;;;;;19.40;13.13;;;9.10;97.90;;;;;;5033618;28;20389;-72
2021/05/14 02:23:09;;;;;;;19.13;12.88;;;9.10;97.80;;;;;;5033971;28;20037;-72
2021/05/14 02:25:35;;;;;;;17.05;12.35;;;9.10;97.80;;;;;;5033337;28;20478;-72
2021/05/14 02:28:02;;;;;;;19.40;12.38;;;9.10;97.70;;;;;;5033633;28;20042;-72
2021/05/14 02:30:28;;;;;;;17.25;12.57;;;9.00;97.70;;;;;;5034019;28;20045;-72
2021/05/14 02:32:54;;;;;;;17.25;11.80;;;9.00;97.70;;;;;;5033987;28;20037;-72
2021/05/14 02:35:20;;;;;;;20.23;12.82;;;9.10;97.70;;;;;;5033169;28;20072;-72
2021/05/14 02:37:46;;;;;;;18.52;13.23;;;8.90;97.90;;;;;;5033627;28;20091;-72
2021/05/14 02:40:12;;;;;;;19.73;13.15;;;9.00;98.00;;;;;;5033469;28;20046;-72
2021/05/14 02:42:38;;;;;;;23.17;14.68;;;9.00;98.20;;;;;;5033745;28;20041;-72
2021/05/14 02:45:08;;;;;;;23.73;14.15;;;9.00;98.10;;;;;;5032921;28;20045;-72
2021/05/14 02:47:34;;;;;;;23.17;14.25;;;9.00;98.10;;;;;;5033722;28;20444;-72
2021/05/14 02:50:00;;;;;;;20.38;14.32;;;9.10;98.00;;;;;;5033072;28;20120;-72
2021/05/14 02:52:25;;;;;;;18.63;13.68;;;9.10;98.00;;;;;;5033189;28;20500;-72
2021/05/14 02:54:53;;;;;;;17.30;12.65;;;9.00;98.10;;;;;;5032893;28;20048;-72
2021/05/14 02:57:18;;;;;;;20.52;13.32;;;8.90;98.00;;;;;;5033414;28;20038;-72
2021/05/14 02:59:44;;;;;;;18.50;11.93;;;8.90;98.00;;;;;;5033128;28;20121;-72
2021/05/14 03:02:10;;;;;;;15.20;10.20;;;9.00;97.90;;;;;;5033192;28;20042;-72
2021/05/14 03:04:36;;;;;;;15.05;10.35;;;9.00;97.70;;;;;;5032709;28;20037;-72
2021/05/14 03:07:02;;;;;;;15.40;9.57;;;9.00;97.60;;;;;;5032981;28;20124;-72
2021/05/14 03:09:28;;;;;;;18.25;9.82;;;9.00;97.50;;;;;;5033402;28;20065;-72
2021/05/14 03:11:54;;;;;;;13.73;8.85;;;9.00;97.30;;;;;;5032947;28;20540;-72
2021/05/14 03:14:20;;;;;;;10.77;7.32;;;8.90;96.90;;;;;;5033421;28;20092;-72
2021/05/14 03:16:45;;;;;;;15.55;8.63;;;9.10;96.90;;;;;;5032539;28;20034;-72
2021/05/14 03:19:11;;;;;;;13.65;7.93;;;9.10;96.80;;;;;;5032825;28;20084;-72
2021/05/14 03:21:37;;;;;;;13.35;7.80;;;9.30;96.70;;;;;;5032828;28;20067;-72
2021/05/14 03:24:03;;;;;;;10.02;6.57;;;9.20;96.50;;;;;;5034753;28;20554;-72
2021/05/14 03:26:28;;;;;;;13.60;8.05;;;9.30;96.40;;;;;;5036296;28;20038;-72
2021/05/14 03:28:54;;;;;;;13.77;7.40;;;9.40;96.30;;;;;;5037287;28;20083;-72
2021/05/14 03:31:20;;;;;;;18.20;6.82;;;9.30;96.20;;;;;;5037289;28;20033;-72
2021/05/14 03:33:46;;;;;;;11.70;6.68;;;9.30;96.10;;;;;;5037039;28;20033;-72
2021/05/14 03:36:13;;;;;;;14.50;6.93;;;9.30;96.00;;;;;;5036118;28;20038;-72
2021/05/14 03:38:39;;;;;;;13.68;7.22;;;9.40;96.10;;;;;;5036836;28;20075;-72
2021/05/14 03:41:18;;;;;;;14.77;6.40;;;9.40;96.00;;;;;;5036928;28;20120;-72
2021/05/14 03:43:45;;;;;;;13.30;7.07;;;9.30;96.00;;;;;;5036416;28;20131;-72
2021/05/14 03:46:12;;;;;;;10.05;6.32;;;9.40;96.00;;;;;;5036026;28;20046;-72
2021/05/14 03:48:39;;;;;;;10.85;6.80;;;9.40;95.90;;;;;;5036466;28;20442;-72
2021/05/14 03:51:05;;;;;;;13.13;6.70;;;9.40;95.90;;;;;;5036341;28;20037;-72
2021/05/14 03:53:30;;;;;;;13.02;6.75;;;9.50;95.80;;;;;;5036310;28;20038;-72
2021/05/14 03:55:57;;;;;;;16.65;7.10;;;9.40;95.90;;;;;;5036016;28;20517;-72
2021/05/14 03:58:22;;;;;;;16.67;6.80;;;9.30;95.70;;;;;;5036647;28;20038;-72
2021/05/14 04:00:48;;;;;;;19.13;6.63;;;9.30;95.80;;;;;;5036656;28;20041;-72
2021/05/14 04:03:17;;;;;;;14.98;5.75;;;9.40;95.90;;;;;;5036639;28;20041;-72
2021/05/14 04:05:43;;;;;;;15.85;6.15;;;9.40;95.70;;;;;;5036100;28;20492;-72
2021/05/14 04:08:10;;;;;;;11.60;5.80;;;9.40;95.60;;;;;;5035931;28;20051;-72
2021/05/14 04:15:46;;;;;;;15.95;5.90;;;9.20;95.10;;;;;;5035832;28;20037;-74
2021/05/14 04:18:12;;;;;;;12.57;5.15;;;9.10;95.40;;;;;;5036119;28;20041;-72
2021/05/14 04:20:38;;;;;;;11.82;4.97;;;9.10;95.50;;;;;;5035776;28;20120;-72
2021/05/14 04:23:04;;;;;;;11.57;4.53;;;9.30;95.30;;;;;;5036338;28;20386;-72
2021/05/14 04:25:31;;;;;;;11.95;5.18;;;9.10;94.80;;;;;;5035703;28;20068;-72
2021/05/14 04:27:57;;;;;;;10.07;5.15;;;9.20;95.00;;;;;;5035629;28;20041;-73
2021/05/14 04:30:23;;;;;;;11.80;4.97;;;9.20;94.90;;;;;;5035666;28;20083;-72
2021/05/14 04:32:49;;;;;;;12.23;6.03;;;9.30;94.90;;;;;;5036020;28;20120;-72
2021/05/14 04:35:14;;;;;;;11.15;5.20;;;9.30;94.90;;;;;;5034524;28;20096;-73
2021/05/14 04:37:40;;;;;;;11.25;5.50;;;9.30;94.90;;;;;;5035256;28;20493;-74
2021/05/14 04:40:06;;;;;;;11.02;4.50;;;9.30;94.80;;;;;;5036003;28;20049;-73
2021/05/14 04:42:32;;;;;;;11.63;5.55;;;9.30;94.90;;;;;;5035537;28;20065;-73
2021/05/14 04:44:58;;;;;;;13.75;5.50;;;9.30;94.80;;;;;;5035097;28;20477;-73
2021/05/14 04:47:23;;;;;;;12.73;4.53;;;9.40;94.90;;;;;;5035476;28;20033;-73
2021/05/14 04:49:49;;;;;;;10.80;5.38;;;9.50;94.90;;;;;;5035325;28;20120;-73
2021/05/14 04:52:19;;;;;;;10.88;4.55;;;9.50;94.90;;;;;;5035223;28;20038;-73
2021/05/14 04:54:46;;;;;;;16.70;6.47;;;9.40;94.70;;;;;;5035425;28;20425;-73
2021/05/14 04:57:13;;;;;;;13.05;4.78;;;9.30;94.50;;;;;;5035257;28;20064;-73
2021/05/14 04:59:40;;;;;;;8.00;4.45;;;9.30;94.60;;;;;;5034911;28;20379;-73
2021/05/14 05:02:07;;;;;;;18.23;5.18;;;9.40;94.80;;;;;;5035074;28;20039;-73
2021/05/14 05:04:37;;;;;;;15.25;5.05;;;9.30;94.50;;;;;;5034622;28;20508;-73
2021/05/14 05:07:03;;;;;;;12.07;4.95;;;9.20;94.40;;;;;;5034912;28;20045;-73
2021/05/14 05:09:30;;;;;;;14.00;5.85;;;9.30;94.60;;;;;;5034962;28;20424;-73
2021/05/14 05:11:56;;;;;;;9.73;5.20;;;9.40;94.60;;;;;;5034869;28;20072;-73
2021/05/14 05:14:22;;;;;;;16.10;5.72;;;9.40;94.60;;;;;;5034639;28;20037;-73
2021/05/14 05:16:47;;;;;;;13.35;4.68;;;9.50;94.50;;;;;;5034810;28;20042;-73
2021/05/14 05:19:13;;;;;;;12.90;4.80;;;9.50;94.40;;;;;;5034669;28;20462;-73
2021/05/14 05:21:39;;;;;;;9.90;5.13;;;9.60;94.30;;;;;;5034610;28;20065;-73
2021/05/14 05:24:05;;;;;;;14.25;5.30;;;9.60;94.10;;;;;;5035134;28;20037;-73
2021/05/14 05:26:31;;;;;;;11.75;6.18;;;9.70;94.30;;;;;;5034171;28;20072;-73
2021/05/14 05:28:56;;;;;;;12.30;6.55;;;9.60;94.00;;;;;;5034397;28;20041;-73
2021/05/14 05:31:22;;;;;;;13.02;6.32;;;9.50;94.40;;;;;;5034326;28;20042;-73
2021/05/14 05:33:48;;;;;;;10.68;5.57;;;9.60;93.90;;;;;;5034569;28;20033;-73
2021/05/14 05:36:14;;;;;;;15.93;6.03;;;9.60;93.90;;;;;;5034065;28;20119;-72
2021/05/14 05:38:40;;;;;;;14.50;6.35;;;9.40;94.10;;;;;;5034275;28;20069;-72
2021/05/14 05:41:05;;;;;;;17.27;6.68;;;9.40;94.20;;;;;;5034282;28;20500;-72
2021/05/14 05:43:31;;;;;;;17.25;7.13;;;9.40;94.20;;;;;;5034360;28;20046;-72
2021/05/14 05:45:57;;;;;;;17.55;5.90;;;9.30;94.20;;;;;;5033625;28;20474;-72
2021/05/14 05:48:22;;;;;;;18.23;6.63;;;9.40;94.30;;;;;;5034573;28;20473;-72
2021/05/14 05:50:49;;;;;;;14.38;6.75;;;9.60;94.30;;;;;;5034075;28;20038;-72
2021/05/14 05:53:15;;;;;;;18.08;6.20;;;9.70;94.20;;;;;;5034396;28;20041;-72
2021/05/14 05:55:41;;;;;;;12.95;6.50;;;9.70;94.00;;;;;;5033888;28;20060;-72
2021/05/14 05:58:12;;;;;;;13.38;6.90;;;9.70;94.00;;;;;;5033832;28;20148;-72
2021/05/14 06:00:38;;;;;;;18.55;6.18;;;9.50;94.00;;;;;;5034549;28;20478;-72
2021/05/14 06:03:06;;;;;;;13.93;6.63;;;9.60;94.10;;;;;;5034019;28;20076;-72
2021/05/14 06:05:32;;;;;;;15.65;7.88;;;9.70;94.10;;;;;;5033437;28;20044;-72
2021/05/14 06:07:57;;;;;;;18.38;7.00;;;9.60;94.10;;;;;;5033908;28;20042;-72
2021/05/14 06:10:23;;;;;;;19.75;7.40;;;9.60;94.30;;;;;;5034038;28;20064;-72
2021/05/14 06:12:49;;;;;;;19.65;8.77;;;9.60;94.30;;;;;;5033667;28;20132;-72
2021/05/14 06:15:15;;;;;;;24.27;8.02;;;9.50;94.30;;;;;;5033578;28;20498;-72
2021/05/14 06:17:42;;;;;;;15.98;7.38;;;9.50;94.30;;;;;;5033365;28;20037;-72
2021/05/14 06:20:11;;;;;;;18.00;6.72;;;9.60;94.20;;;;;;5033621;28;20041;-72
2021/05/14 06:22:38;;;;;;;18.30;6.93;;;9.70;94.20;;;;;;5033504;28;20169;-72
2021/05/14 06:25:04;;;;;;;14.23;6.47;;;9.80;94.20;;;;;;5033319;28;20060;-72
2021/05/14 06:27:30;;;;;;;17.98;6.60;;;9.80;93.90;;;;;;5033387;28;20033;-72
2021/05/14 06:29:56;;;;;;;19.15;7.13;;;9.90;93.70;;;;;;5033981;28;20056;-72
2021/05/14 06:32:22;;;;;;;10.30;6.28;;;9.90;93.40;;;;;;5033372;28;20053;-72
2021/05/14 06:34:48;;;;;;;10.27;5.40;;;9.90;93.60;;;;;;5033117;28;20053;-72
2021/05/14 06:37:14;;;;;;;11.60;6.50;;;9.90;93.50;;;;;;5033667;28;20045;-72
2021/05/14 06:39:42;;;;;;;13.52;5.78;;;10.00;93.50;;;;;;5033625;28;20052;-72
2021/05/14 06:42:08;;;;;;;11.13;5.30;;;10.00;93.40;;;;;;5033358;28;20124;-72
2021/05/14 06:44:34;;;;;;;8.10;5.38;;;10.10;93.40;;;;;;5032938;28;20184;-72
2021/05/14 06:47:00;;;;;;;14.85;6.07;;;10.10;93.50;;;;;;5033585;28;20517;-72
2021/05/14 06:49:26;;;;;;;14.15;5.68;;;10.10;93.40;;;;;;5033116;28;20048;-72
2021/05/14 06:51:51;;;;;;;9.75;5.38;;;10.10;93.40;;;;;;5033163;28;20094;-72
2021/05/14 06:54:17;;;;;;;14.73;5.70;;;10.10;93.30;;;;;;5033385;28;20097;-73
2021/05/14 06:56:43;;;;;;;11.88;5.57;;;10.00;93.20;;;;;;5033211;28;20033;-72
2021/05/14 06:59:09;;;;;;;11.88;5.70;;;9.90;93.00;;;;;;5035952;28;20045;-71
2021/05/14 07:01:35;;;;;;;14.70;5.30;;;9.90;93.20;;;;;;5037807;28;20112;-72
2021/05/14 07:04:01;;;;;;;13.32;5.45;;;9.90;93.10;;;;;;5037103;28;20076;-72
2021/05/14 07:06:29;;;;;;;12.65;5.50;;;10.10;93.30;;;;;;5037048;28;20057;-72
2021/05/14 07:08:54;;;;;;;16.05;6.25;;;10.00;93.10;;;;;;5037127;28;20048;-72
2021/05/14 07:11:20;;;;;;;13.65;5.93;;;10.20;93.30;;;;;;5037431;28;20433;-72
2021/05/14 07:13:46;;;;;;;12.45;5.68;;;10.10;93.10;;;;;;5037223;28;20056;-72
2021/05/14 07:16:14;;;;;;;21.10;6.03;;;10.00;93.10;;;;;;5036549;28;20084;-72
2021/05/14 07:18:40;;;;;;;19.77;6.55;;;10.10;93.40;;;;;;5036979;28;20046;-72
2021/05/14 07:21:06;;;;;;;17.35;6.15;;;10.20;93.20;;;;;;5037402;28;20038;-72
2021/05/14 07:23:32;;;;;;;14.18;5.78;;;10.30;93.00;;;;;;5036828;28;20504;-72
2021/05/14 07:25:58;;;;;;;14.77;7.18;;;10.40;93.00;;;;;;5036514;28;20038;-72
2021/05/14 07:28:24;;;;;;;17.90;6.60;;;10.20;92.70;;;;;;5037348;28;20074;-72
2021/05/14 07:30:50;;;;;;;14.48;6.53;;;10.20;92.60;;;;;;5037106;28;20116;-72
2021/05/14 07:33:16;;;;;;;16.10;6.80;;;10.20;92.80;;;;;;5036759;28;20450;-72
2021/05/14 07:35:42;;;;;;;15.55;6.25;;;10.30;92.90;;;;;;5036569;28;20144;-72
2021/05/14 07:38:08;;;;;;;13.07;6.05;;;10.40;93.00;;;;;;5036459;28;20045;-72
2021/05/14 07:40:44;;;;;;;16.92;6.20;;;10.50;93.00;;;;;;5037212;28;20040;-72
2021/05/14 07:43:10;;;;;;;19.05;5.65;;;10.50;92.70;;;;;;5037057;28;20417;-73
2021/05/14 07:45:36;;;;;;;8.98;5.45;;;10.50;92.80;;;;;;5036205;28;20151;-72
2021/05/14 07:48:04;;;;;;;10.63;5.38;;;10.30;92.40;;;;;;5036349;28;20471;-72
2021/05/14 07:50:29;;;;;;;9.15;4.88;;;10.40;92.30;;;;;;5036530;28;20370;-72
2021/05/14 07:52:56;;;;;;;16.73;5.25;;;10.40;92.40;;;;;;5035197;28;20048;-72
2021/05/14 07:55:22;;;;;;;16.20;5.03;;;10.40;92.60;;;;;;5036101;28;20045;-72
2021/05/14 07:57:48;;;;;;;18.25;5.57;;;10.50;92.60;;;;;;5036721;28;20056;-72
2021/05/14 08:00:22;;;;;;;13.05;5.28;;;10.60;92.60;;;;;;5036270;28;20118;-72
2021/05/14 08:02:48;;;;;;;13.63;5.20;;;10.70;92.70;;;;;;5036133;28;20049;-71
2021/05/14 08:05:15;;;;;;;11.50;5.18;;;10.80;92.20;;;;;;5035847;28;20068;-72
2021/05/14 08:07:41;;;;;;;12.57;4.78;;;10.80;92.00;;;;;;5036292;28;20044;-72
2021/05/14 08:10:07;;;;;;;11.73;4.93;;;10.90;91.80;;;;;;5035793;28;20041;-71
2021/05/14 08:12:34;;;;;;;13.45;5.03;;;10.90;91.80;;;;;;5036195;28;20438;-72
2021/05/14 08:15:02;;;;;;;9.13;5.10;;;10.90;92.00;;;;;;5036143;28;20099;-72
2021/05/14 08:17:28;;;;;;;9.80;5.18;;;11.00;92.20;;;;;;5035806;28;20041;-72
2021/05/14 08:19:54;;;;;;;8.18;4.80;;;11.00;92.10;;;;;;5035772;28;20661;-72
2021/05/14 08:22:20;;;;;;;9.93;5.18;;;11.10;91.80;;;;;;5036044;28;20116;-72
2021/05/14 08:24:46;;;;;;;9.15;5.18;;;11.00;91.10;;;;;;5035363;28;20406;-72
2021/05/14 08:27:13;;;;;;;9.05;5.25;;;11.00;91.00;;;;;;5036320;28;20034;-72
2021/05/14 08:29:39;;;;;;;13.38;5.97;;;11.10;91.30;;;;;;5035754;28;20045;-72
2021/05/14 08:32:05;;;;;;;11.10;6.05;;;11.10;91.40;;;;;;5035748;28;20041;-72
2021/05/14 08:34:30;;;;;;;18.00;5.75;;;11.20;91.40;;;;;;5034987;28;20107;-74
2021/05/14 08:36:56;;;;;;;10.65;5.90;;;11.20;91.20;;;;;;5035711;28;20053;-72
2021/05/14 08:39:22;;;;;;;11.50;5.80;;;11.30;90.60;;;;;;5035676;28;20102;-72
2021/05/14 08:41:48;;;;;;;14.55;5.82;;;11.20;90.60;;;;;;5035341;28;20485;-72
2021/05/14 08:44:14;;;;;;;14.57;6.22;;;11.20;90.90;;;;;;5035613;28;20037;-72
2021/05/14 08:46:41;;;;;;;10.85;6.18;;;11.40;91.00;;;;;;5034956;28;20116;-72
2021/05/14 08:49:09;;;;;;;9.98;5.07;;;11.60;90.30;;;;;;5017358;28;20041;-73
2021/05/14 08:51:37;;;;;;;13.05;6.97;;;11.70;90.40;;;;;;5035968;28;20141;-72
2021/05/14 08:54:06;;;;;;;13.88;5.45;;;11.90;90.30;;;;;;5035289;28;20041;-74
2021/05/14 08:56:36;;;;;;;11.98;5.05;;;11.90;90.10;;;;;;5035253;28;20386;-72
2021/05/14 08:59:02;;;;;;;11.70;5.38;;;12.00;90.50;;;;;;5035204;28;20053;-72
2021/05/14 09:01:29;;;;;;;12.90;6.50;;;12.00;90.20;;;;;;5035551;28;20037;-72
2021/05/14 09:04:07;;;;;;;13.75;6.43;;;11.90;89.40;;;;;;5035108;28;20052;-72
2021/05/14 09:06:37;;;;;;;12.20;6.88;;;11.90;89.30;;;;;;5016944;28;20122;-72
2021/05/14 09:09:10;;;;;;;10.80;6.55;;;11.90;89.50;;;;;;5035185;28;20601;-72
2021/05/14 09:11:51;;;;;;;11.38;6.18;;;11.80;89.20;;;;;;5035066;28;20033;-72
2021/05/14 09:14:42;;;;;;;12.82;6.32;;;11.90;89.90;;;;;;5020427;28;20059;-72
2021/05/14 09:17:10;;;;;;;11.20;6.55;;;11.90;90.10;;;;;;5034664;28;20033;-72
2021/05/14 09:19:40;;;;;;;11.10;6.70;;;12.10;90.00;;;;;;5034594;28;20445;-72
2021/05/14 09:22:15;;;;;;;10.00;6.57;;;12.10;88.90;;;;;;5033902;28;20402;-72
2021/05/14 09:24:44;;;;;;;13.55;7.00;;;12.20;89.00;;;;;;5034632;28;20127;-72
2021/05/14 09:27:35;;;;;;;14.00;6.80;;;12.40;88.90;;;;;;5035144;28;20128;-72
2021/05/14 09:30:03;;;;;;;11.02;6.28;;;12.40;88.70;;;;;;5034649;28;20050;-73
2021/05/14 09:32:32;;;;;;;11.73;6.80;;;12.40;89.30;;;;;;5034744;28;20083;-72
2021/05/14 09:35:00;;;;;;;13.27;6.03;;;12.40;88.80;;;;;;5034127;28;20482;-72
2021/05/14 09:37:29;;;;;;;13.82;6.53;;;12.40;88.50;;;;;;5034470;28;20038;-72
2021/05/14 09:40:16;;;;;;;12.10;6.50;;;12.40;87.60;;;;;;5034860;28;20034;-72
2021/05/14 09:42:43;;;;;;;10.50;5.60;;;12.40;86.30;;;;;;5034403;28;20054;-72
2021/05/14 09:45:28;;;;;;;10.27;5.50;;;12.80;87.20;;;;;;5051316;28;20033;-73
2021/05/14 09:48:22;;;;;;;11.68;5.72;;;13.30;86.00;;;;;;5054754;28;20048;-72
2021/05/14 09:50:50;;;;;;;12.05;6.50;;;13.50;85.10;;;;;;5053941;28;20048;-73
2021/05/14 09:53:20;;;;;;;15.60;5.38;;;13.50;84.70;;;;;;5054151;28;20033;-72
2021/05/14 09:55:58;;;;;;;12.73;5.28;;;13.50;84.70;;;;;;5054045;28;20112;-72
2021/05/14 09:58:26;;;;;;;13.00;5.90;;;13.80;84.10;;;;;;5054181;28;20094;-73
2021/05/14 10:00:52;;;;;;;10.63;5.55;;;13.30;83.30;;;;;;5054049;28;20037;-73
2021/05/14 10:03:20;;;;;;;11.00;5.35;;;13.30;83.90;;;;;;5053814;28;20118;-72
2021/05/14 10:05:48;;;;;;;11.15;5.53;;;13.30;84.20;;;;;;5035969;28;20064;-72
2021/05/14 10:08:24;;;;;;;13.00;5.10;;;13.00;83.20;;;;;;5054088;28;20115;-72
2021/05/14 10:11:08;;;;;;;13.60;6.25;;;13.20;84.50;;;;;;5054312;28;20033;-72
2021/05/14 10:13:36;;;;;;;15.20;4.88;;;13.30;84.80;;;;;;5054019;28;20495;-72
2021/05/14 10:16:03;;;;;;;16.33;5.43;;;13.30;84.50;;;;;;5053140;28;20500;-73
2021/05/14 10:18:30;;;;;;;10.57;6.10;;;13.40;84.40;;;;;;5053530;28;20045;-73
2021/05/14 10:20:57;;;;;;;10.65;5.32;;;13.10;83.70;;;;;;5054027;28;20393;-70
2021/05/14 10:23:32;;;;;;;8.77;5.70;;;12.80;83.90;;;;;;5053599;28;20079;-70
2021/05/14 10:26:13;;;;;;;9.82;5.35;;;12.90;85.30;;;;;;5053223;28;20068;-71
2021/05/14 10:28:47;;;;;;;11.40;5.60;;;12.90;86.10;;;;;;5053569;28;20116;-72
2021/05/14 10:31:19;;;;;;;13.57;5.55;;;13.00;85.30;;;;;;5053702;28;20037;-71
2021/05/14 10:33:48;;;;;;;10.50;5.88;;;13.20;85.90;;;;;;5053591;28;20048;-71
2021/05/14 10:36:24;;;;;;;10.50;5.40;;;13.40;85.30;;;;;;5052964;28;20064;-72
2021/05/14 10:39:06;;;;;;;14.98;5.82;;;13.40;86.00;;;;;;5053367;28;20047;-71
2021/05/14 10:41:33;;;;;;;12.40;5.55;;;13.00;84.80;;;;;;5053062;28;20489;-71
2021/05/14 10:43:59;;;;;;;12.52;5.45;;;13.10;85.40;;;;;;5053156;28;20408;-71
2021/05/14 10:46:28;;;;;;;13.10;5.97;;;13.00;85.60;;;;;;5052676;28;20108;-71
2021/05/14 10:49:07;;;;;;;14.82;5.00;;;13.20;85.80;;;;;;5053004;28;20065;-71
2021/05/14 10:51:51;;;;;;;14.55;5.57;;;13.40;85.50;;;;;;5053064;28;20060;-69
2021/05/14 10:54:37;;;;;;;9.60;5.25;;;13.40;84.70;;;;;;5035282;28;20491;-70
2021/05/14 10:57:03;;;;;;;9.38;4.60;;;13.70;84.50;;;;;;5033455;28;20041;-71
2021/05/14 10:59:30;;;;;;;12.90;6.00;;;13.80;83.90;;;;;;5052632;28;20472;-71
2021/05/14 11:01:57;;;;;;;12.20;5.07;;;13.90;84.00;;;;;;5052967;28;20037;-71
2021/05/14 11:04:26;;;;;;;10.73;5.18;;;14.00;83.90;;;;;;5052998;28;20037;-72
2021/05/14 11:06:53;;;;;;;12.90;4.60;;;13.90;83.40;;;;;;5052388;28;20056;-71
2021/05/14 11:09:23;;;;;;;12.25;5.32;;;13.90;84.30;;;;;;5053283;28;20397;-71
2021/05/14 11:12:05;;;;;;;12.50;4.68;;;14.10;83.80;;;;;;5035915;28;20037;-71
2021/05/14 11:14:51;;;;;;;13.13;5.50;;;14.30;83.10;;;;;;5035449;28;20465;-71
2021/05/14 11:17:19;;;;;;;10.55;4.78;;;14.30;81.90;;;;;;5052693;28;20037;-71
2021/05/14 11:19:53;;;;;;;10.95;4.63;;;14.40;81.40;;;;;;5035670;28;20037;-71
2021/05/14 11:22:27;;;;;;;8.57;4.78;;;14.70;82.10;;;;;;5053291;28;20111;-71
2021/05/14 11:25:13;;;;;;;11.85;4.40;;;14.70;81.30;;;;;;5052809;28;20041;-71
2021/05/14 11:27:40;;;;;;;11.05;6.07;;;14.70;82.10;;;;;;5052761;28;20037;-71
2021/05/14 11:30:09;;;;;;;9.98;5.43;;;14.70;82.30;;;;;;5052792;28;20052;-71
2021/05/14 11:32:40;;;;;;;13.98;5.57;;;14.70;81.90;;;;;;5052913;28;20033;-71
2021/05/14 11:35:06;;;;;;;9.82;5.13;;;14.80;81.90;;;;;;5052620;28;20424;-71
2021/05/14 11:37:34;;;;;;;11.05;4.95;;;14.80;81.50;;;;;;5052988;28;20040;-70
2021/05/14 11:40:10;;;;;;;13.07;5.57;;;14.70;81.20;;;;;;5053239;28;20165;-70
2021/05/14 11:42:44;;;;;;;14.38;5.97;;;14.70;81.00;;;;;;5053130;28;20041;-70
2021/05/14 11:45:26;;;;;;;10.55;5.30;;;14.50;81.20;;;;;;5055111;28;20049;-70
2021/05/14 11:48:13;;;;;;;10.23;5.22;;;14.70;81.30;;;;;;5027641;28;20044;-70
2021/05/14 11:50:41;;;;;;;10.57;5.03;;;14.40;81.00;;;;;;5055610;28;20045;-70
2021/05/14 11:53:09;;;;;;;12.15;5.63;;;14.50;81.00;;;;;;5056584;28;20378;-70
2021/05/14 11:55:37;;;;;;;11.57;4.78;;;14.70;82.80;;;;;;5055940;28;20040;-71
2021/05/14 11:58:03;;;;;;;7.43;4.68;;;14.80;82.60;;;;;;5056194;28;20048;-70
2021/05/14 12:00:43;;;;;;;11.65;5.07;;;14.80;81.90;;;;;;5056473;28;20052;-69
2021/05/14 12:03:11;;;;;;;12.55;4.90;;;14.80;81.40;;;;;;5055893;28;20538;-70
2021/05/14 12:05:38;;;;;;;10.07;4.68;;;14.80;81.40;;;;;;5055895;28;20036;-71
2021/05/14 12:08:27;;;;;;;10.60;4.88;;;14.80;82.40;;;;;;5056536;28;20040;-70
2021/05/14 12:10:56;;;;;;;14.43;5.25;;;14.90;79.90;;;;;;5056268;28;20044;-69
2021/05/14 12:13:24;;;;;;;11.80;5.20;;;14.90;80.40;;;;;;5055813;28;20503;-69
2021/05/14 12:16:05;;;;;;;9.23;4.70;;;14.90;80.90;;;;;;5055797;28;20384;-69
2021/05/14 12:18:33;;;;;;;12.10;5.53;;;14.80;80.40;;;;;;5056185;28;20452;-69
2021/05/14 12:21:00;;;;;;;15.73;6.03;;;14.70;81.30;;;;;;5055781;28;20041;-70
2021/05/14 12:23:29;;;;;;;11.75;5.95;;;14.90;81.70;;;;;;5055943;28;20033;-69
2021/05/14 12:26:00;;;;;;;14.55;6.22;;;15.00;81.80;;;;;;5055015;28;20060;-71
2021/05/14 12:28:36;;;;;;;8.75;4.93;;;14.80;80.00;;;;;;5055486;28;20044;-71
2021/05/14 12:31:07;;;;;;;16.27;6.40;;;14.70;81.20;;;;;;5055785;28;20043;-71
2021/05/14 12:33:46;;;;;;;10.90;5.25;;;14.50;81.90;;;;;;5054519;28;20056;-71
2021/05/14 12:36:11;;;;;;;12.48;5.50;;;14.50;81.50;;;;;;5053111;28;20037;-71
2021/05/14 12:38:45;;;;;;;13.60;5.40;;;14.50;82.20;;;;;;5053856;28;20053;-71
2021/05/14 12:41:32;;;;;;;10.05;6.07;;;14.60;81.90;;;;;;5054011;28;20692;-72
2021/05/14 12:44:11;;;;;;;12.02;5.30;;;14.40;80.70;;;;;;5054001;28;20041;-72
2021/05/14 12:46:59;;;;;;;11.80;5.82;;;14.50;82.50;;;;;;5053479;28;20497;-71
2021/05/14 12:49:26;;;;;;;9.73;5.70;;;14.50;81.90;;;;;;5054681;28;20040;-71
2021/05/14 12:52:04;;;;;;;9.52;6.55;;;14.40;81.60;;;;;;5055837;28;20041;-71